Levittown, PR

6:59 AM AST on August 30, 2014 (GMT -0400)
KP4MP DAVIS | Change Station
CLOSE
Current Station
Personal Weather Station
Location: Sabana Seca, TOA BAJA
Elevation: 23 ft
Nearby Weather Stations

Elev 23 ft 18.44 °N, 66.18 °W | Updated 7 seconds ago

Scattered Clouds
Scattered Clouds
76.5 °F
Feels Like 77 °F
N
2.0
Wind Variable Wind from South
Gusts 4.0 mph

Today
High -- | Low -- °F
--% Chance of Precip.
Yesterday
High -- | Low -- °F
Precip. -- in
6:09 AM 6:40 PM
Waxing Crescent, 21% visible
Pressure 30.04 in
Visibility 10.0 miles
Clouds Few 3300 ft
Scattered Clouds 5000 ft
Scattered Clouds 10000 ft
Heat Index 77 °F
Dew Point 74 °F
Humidity 91%
Rainfall 0.00 in
Snow Depth Not available.
UV 0 out of 12
Pollen Not available.
Air Quality Not available.
Flu Activity Not available.
METAR TJSJ 300956Z 00000KT 10SM FEW033 SCT050 SCT100 26/24 A3004 RMK AO2 SLP170 P0001 T02560239

More Conditions Fewer Conditions

Pressure 30.04 in
Visibility 10.0 miles
Clouds Few 3300 ft
Scattered Clouds 5000 ft
Scattered Clouds 10000 ft
Heat Index 77 °F
Dew Point 74 °F
Humidity 91%
Rainfall 0.00 in
Snow Depth Not available.
UV 0 out of 12
Pollen Not available.
Air Quality Not available.
Flu Activity Not available.
METAR TJSJ 300956Z 00000KT 10SM FEW033 SCT050 SCT100 26/24 A3004 RMK AO2 SLP170 P0001 T02560239

More Conditions Fewer Conditions

10-Day Weather Forecast

Almanac

Astronomy

Aug. 30, 2014 Rise Set
Actual Time 6:09 AM AST 6:40 PM AST
Civil Twilight 5:47 AM AST 7:02 PM AST
Nautical Twilight 5:21 AM AST 7:28 PM AST
Astronomical Twilight 4:55 AM AST 7:54 PM AST
Moon 10:09 AM AST 9:58 PM AST
Length of Visible Light 13h 15m
Length of Day
12h 30m
Tomorrow will be 0m 59s shorter.
Waxing Crescent, 21% of the Moon is Illuminated
Today
Waxing Crescent
Sep 2
First Quarter
Sep 8
Full
Sep 15
Last Quarter
Sep 24
New

Community

WunderPhotos

Upload Photos

1,748,482 photos uploaded!

WunderBlogs® & News

By Dr. Jeff Masters
Director of Meteorology, Weather Underground
By Kari Strenfel
Meteorologist, Weather Underground
By Christopher C. Burt
Weather Historian, Weather Underground
August 30, 2014
August 29, 2014
August 29, 2014

Nearby

Snow Depth

Station Depth Elevation
No new snow has been reported.

Earthquake Activity

City Distance Mag. Time & Date
No recent earthquake activity has been reported nearby.
Minimum magnitude displayed is 2.5.

Coastal Water Temperatures

Place Temperature
San Juan, PR 84.0 °F
Mayaguez, PR 84.0 °F
Esperanza, PR 82.9 °F

Nearby Weather Stations